createdAt,value
2022-10-20T00:01:19.041Z,2.72
2022-10-20T00:04:04.399Z,2.08
2022-10-20T00:06:49.879Z,3.15
2022-10-20T00:09:35.120Z,3.05
2022-10-20T00:12:20.639Z,2.80
2022-10-20T00:15:06.321Z,2.38
2022-10-20T00:17:52.189Z,4.85
2022-10-20T00:20:40.097Z,3.00
2022-10-20T00:23:25.616Z,4.45
2022-10-20T00:26:14.307Z,3.70
2022-10-20T00:29:01.499Z,3.10
2022-10-20T00:31:46.676Z,2.95
2022-10-20T00:34:33.165Z,3.45
2022-10-20T00:37:18.350Z,4.38
2022-10-20T00:40:04.463Z,4.70
2022-10-20T00:42:50.227Z,3.67
2022-10-20T00:45:35.857Z,2.95
2022-10-20T00:48:25.988Z,5.95
2022-10-20T00:51:16.137Z,6.55
2022-10-20T00:54:15.212Z,1.80
2022-10-20T00:59:51.578Z,4.20
2022-10-20T01:02:37.172Z,4.53
2022-10-20T01:05:23.171Z,2.80
2022-10-20T01:08:08.572Z,3.97
2022-10-20T01:11:10.907Z,2.42
2022-10-20T01:14:02.779Z,3.13
2022-10-20T01:16:57.096Z,5.80
2022-10-20T01:20:00.395Z,2.65
2022-10-20T01:23:07.181Z,2.50
2022-10-20T01:25:58.677Z,3.67
2022-10-20T01:28:54.112Z,3.40
2022-10-20T01:31:43.111Z,2.97
2022-10-20T01:34:37.750Z,2.85
2022-10-20T01:37:48.566Z,4.00
2022-10-20T01:40:44.802Z,2.60
2022-10-20T01:43:35.688Z,2.00
2022-10-20T01:46:25.450Z,5.47
2022-10-20T01:49:14.409Z,2.38
2022-10-20T01:52:00.825Z,4.57
2022-10-20T01:54:46.072Z,2.75
2022-10-20T01:57:38.441Z,2.28
2022-10-20T02:00:24.311Z,2.35
2022-10-20T02:03:31.010Z,2.72
2022-10-20T02:06:31.656Z,3.28
2022-10-20T02:09:40.151Z,2.95
2022-10-20T02:12:29.469Z,3.72
2022-10-20T02:15:19.421Z,6.90
2022-10-20T02:18:08.636Z,5.15
2022-10-20T02:20:57.019Z,2.40
2022-10-20T02:23:45.993Z,2.30
2022-10-20T02:26:34.034Z,2.10
2022-10-20T02:29:25.602Z,2.50
2022-10-20T02:32:12.570Z,3.23
2022-10-20T02:34:58.192Z,6.70
2022-10-20T02:37:43.907Z,3.22
2022-10-20T02:40:29.793Z,4.80
2022-10-20T02:43:15.405Z,2.25
2022-10-20T02:46:00.608Z,3.67
2022-10-20T02:48:45.910Z,4.57
2022-10-20T02:51:31.344Z,2.33
2022-10-20T02:54:17.108Z,2.47
2022-10-20T02:57:02.585Z,5.22
2022-10-20T02:59:47.923Z,2.75
2022-10-20T03:02:33.583Z,2.60
2022-10-20T03:05:19.227Z,1.98
2022-10-20T03:08:04.720Z,3.10
2022-10-20T03:10:50.030Z,2.58
2022-10-20T03:13:35.467Z,3.22
2022-10-20T03:16:20.871Z,3.33
2022-10-20T03:19:09.158Z,4.35
2022-10-20T03:21:56.923Z,3.08
2022-10-20T03:24:42.426Z,3.58
2022-10-20T03:27:27.744Z,2.80
2022-10-20T03:30:13.026Z,4.43
2022-10-20T03:32:58.281Z,5.07
2022-10-20T03:35:43.649Z,3.58
2022-10-20T03:38:28.910Z,3.28
2022-10-20T03:41:14.104Z,3.75
2022-10-20T03:43:59.386Z,3.10
2022-10-20T03:46:44.683Z,4.13
2022-10-20T03:49:31.661Z,2.60
2022-10-20T03:52:16.887Z,3.38
2022-10-20T03:55:02.356Z,3.78
2022-10-20T03:57:47.630Z,5.55
2022-10-20T04:00:33.110Z,3.13
2022-10-20T04:03:18.349Z,3.67
2022-10-20T04:06:04.086Z,6.07
2022-10-20T04:08:49.517Z,3.60
2022-10-20T04:11:34.931Z,3.30
2022-10-20T04:14:20.233Z,4.50
2022-10-20T04:17:06.496Z,3.65
2022-10-20T04:19:52.060Z,3.65
2022-10-20T04:22:38.743Z,3.67
2022-10-20T04:25:24.367Z,3.58
2022-10-20T04:28:09.663Z,4.25
2022-10-20T04:30:57.151Z,4.78
2022-10-20T04:33:42.709Z,4.53
2022-10-20T04:36:28.358Z,4.50
2022-10-20T04:39:14.315Z,3.60
2022-10-20T04:41:59.922Z,7.93
2022-10-20T04:44:45.665Z,3.72
2022-10-20T04:47:33.141Z,4.78
2022-10-20T04:50:18.710Z,4.03
2022-10-20T04:53:16.226Z,5.72
2022-10-20T04:56:02.527Z,4.70
2022-10-20T04:58:58.599Z,2.75
2022-10-20T05:01:45.390Z,5.97
2022-10-20T05:04:31.967Z,5.05
2022-10-20T05:07:17.317Z,4.35
2022-10-20T05:10:03.919Z,5.22
2022-10-20T05:12:49.999Z,6.38
2022-10-20T05:15:35.220Z,4.97
2022-10-20T05:18:20.950Z,3.95
2022-10-20T05:21:12.078Z,6.13
2022-10-20T05:23:59.935Z,4.05
2022-10-20T05:26:45.511Z,3.78
2022-10-20T05:29:31.155Z,4.57
2022-10-20T05:32:16.396Z,5.13
2022-10-20T05:35:01.830Z,3.45
2022-10-20T05:37:47.164Z,7.18
2022-10-20T05:40:32.675Z,5.22
2022-10-20T05:43:18.134Z,7.43
2022-10-20T05:46:04.421Z,4.72
2022-10-20T05:48:53.718Z,4.85
2022-10-20T05:51:39.151Z,5.32
2022-10-20T05:54:24.701Z,4.53
2022-10-20T05:57:10.479Z,5.53
2022-10-20T05:59:55.939Z,5.18
2022-10-20T06:02:41.337Z,5.43
2022-10-20T06:05:26.640Z,5.13
2022-10-20T06:08:12.147Z,4.80
2022-10-20T06:11:01.675Z,4.03
2022-10-20T06:13:51.681Z,3.95
2022-10-20T06:16:38.765Z,6.18
2022-10-20T06:19:25.289Z,6.75
2022-10-20T06:22:10.487Z,4.10
2022-10-20T06:24:55.659Z,6.20
2022-10-20T06:27:42.388Z,4.65
2022-10-20T06:30:28.012Z,7.22
2022-10-20T06:33:14.913Z,5.47
2022-10-20T06:36:03.190Z,5.93
2022-10-20T06:38:52.156Z,6.38
2022-10-20T06:41:38.363Z,6.03
2022-10-20T06:44:24.504Z,4.47
2022-10-20T06:47:10.426Z,6.80
2022-10-20T06:49:55.924Z,4.57
2022-10-20T06:52:41.295Z,4.95
2022-10-20T06:55:26.668Z,4.90
2022-10-20T06:58:13.902Z,3.85
2022-10-20T07:01:14.730Z,5.90
2022-10-20T07:04:04.402Z,6.30
2022-10-20T07:06:49.624Z,5.03
2022-10-20T07:09:35.693Z,6.57
2022-10-20T07:12:21.062Z,5.85
2022-10-20T07:15:06.945Z,4.45
2022-10-20T07:17:52.049Z,4.75
2022-10-20T07:20:37.629Z,4.90
2022-10-20T07:23:22.989Z,4.32
2022-10-20T07:26:30.073Z,4.05
2022-10-20T07:29:15.714Z,3.85
2022-10-20T07:32:02.140Z,5.28
2022-10-20T07:34:47.705Z,3.65
2022-10-20T07:37:33.229Z,5.18
2022-10-20T07:40:18.559Z,3.55
2022-10-20T07:43:04.159Z,4.70
2022-10-20T07:45:49.351Z,3.80
2022-10-20T07:48:34.942Z,9.35
2022-10-20T07:51:30.090Z,5.03
2022-10-20T07:54:15.724Z,3.97
2022-10-20T07:57:01.023Z,4.80
2022-10-20T07:59:46.431Z,3.17
2022-10-20T08:02:31.739Z,7.30
2022-10-20T08:05:17.191Z,2.67
2022-10-20T08:08:02.857Z,3.03
2022-10-20T08:10:48.423Z,2.60
2022-10-20T08:13:34.369Z,4.18
2022-10-20T08:16:22.477Z,6.50
2022-10-20T08:22:07.180Z,2.97
2022-10-20T08:24:52.389Z,3.10
2022-10-20T08:27:37.983Z,2.58
2022-10-20T08:30:24.325Z,3.40
2022-10-20T08:33:10.255Z,2.20
2022-10-20T08:35:56.013Z,3.20
2022-10-20T08:38:42.503Z,3.45
2022-10-20T08:41:43.484Z,2.97
2022-10-20T08:44:44.612Z,4.93
2022-10-20T08:47:33.625Z,1.80
2022-10-20T08:50:21.863Z,2.22
2022-10-20T08:53:10.396Z,1.80
2022-10-20T08:55:56.527Z,2.83
2022-10-20T08:58:44.399Z,1.67
2022-10-20T09:01:34.542Z,2.03
2022-10-20T09:04:58.441Z,3.25
2022-10-20T09:07:45.013Z,6.97
2022-10-20T09:10:37.624Z,2.95
2022-10-20T09:13:28.898Z,5.05
2022-10-20T09:16:34.960Z,2.58
2022-10-20T09:19:28.706Z,5.75
2022-10-20T09:22:16.051Z,2.22
2022-10-20T09:25:01.873Z,1.08
2022-10-20T09:27:47.633Z,1.50
2022-10-20T09:30:35.373Z,2.17
2022-10-20T09:33:34.009Z,1.67
2022-10-20T09:36:21.880Z,2.28
2022-10-20T09:39:20.350Z,3.97
2022-10-20T09:42:13.736Z,2.17
2022-10-20T09:45:06.588Z,3.92
2022-10-20T09:47:56.416Z,1.60
2022-10-20T09:50:49.771Z,2.55
2022-10-20T09:53:50.833Z,5.97
2022-10-20T09:56:40.471Z,1.77
2022-10-20T09:59:36.006Z,2.60
2022-10-20T10:02:21.657Z,1.70
2022-10-20T10:05:19.047Z,1.88
2022-10-20T10:08:04.824Z,1.65
2022-10-20T10:11:12.894Z,1.92
2022-10-20T10:13:58.619Z,1.60
2022-10-20T10:16:44.262Z,1.65
2022-10-20T10:19:31.991Z,2.22
2022-10-20T10:22:19.029Z,1.35
2022-10-20T10:25:07.011Z,3.85
2022-10-20T10:28:07.161Z,1.70
2022-10-20T10:31:23.695Z,1.27
2022-10-20T10:34:12.847Z,1.45
2022-10-20T10:36:59.238Z,1.42
2022-10-20T10:39:49.803Z,1.83
2022-10-20T10:42:48.543Z,1.80
2022-10-20T10:46:04.331Z,1.20
2022-10-20T10:49:11.311Z,1.17
2022-10-20T10:52:36.708Z,1.38
2022-10-20T10:55:47.939Z,2.83
2022-10-20T10:58:33.859Z,1.10
2022-10-20T11:01:44.180Z,2.22
2022-10-20T11:04:48.755Z,2.53
2022-10-20T11:07:49.784Z,1.60
2022-10-20T11:10:47.650Z,1.77
2022-10-20T11:13:36.169Z,1.50
2022-10-20T11:16:26.323Z,2.28
2022-10-20T11:19:17.913Z,4.22
2022-10-20T11:22:35.096Z,6.33
2022-10-20T11:25:44.717Z,1.20
2022-10-20T11:28:44.269Z,2.70
2022-10-20T11:31:48.450Z,1.92
2022-10-20T11:34:40.911Z,4.60
2022-10-20T11:37:32.674Z,24.08
2022-10-20T11:40:29.667Z,18.20
2022-10-20T11:43:23.576Z,77.50
2022-10-20T11:46:25.066Z,23.17
2022-10-20T11:49:12.577Z,7.57
2022-10-20T11:52:34.940Z,8.73
2022-10-20T11:55:40.119Z,4.90
2022-10-20T11:58:53.655Z,1.95
2022-10-20T12:02:17.158Z,12.57
2022-10-20T12:05:11.577Z,5.25
2022-10-20T12:08:05.779Z,7.82
2022-10-20T12:11:17.992Z,12.63
2022-10-20T12:14:15.607Z,11.88
2022-10-20T12:17:31.206Z,7.15
2022-10-20T12:20:22.716Z,9.00
2022-10-20T12:23:43.097Z,4.85
2022-10-20T12:26:34.203Z,3.63
2022-10-20T12:29:33.026Z,2.65
2022-10-20T12:32:25.585Z,3.90
2022-10-20T12:35:11.118Z,5.00
2022-10-20T12:38:04.232Z,6.10
2022-10-20T12:40:58.136Z,5.18
2022-10-20T12:43:53.340Z,5.88
2022-10-20T12:46:43.423Z,3.35
2022-10-20T12:49:36.352Z,5.32
2022-10-20T12:52:26.648Z,4.35
2022-10-20T12:55:31.764Z,5.85
2022-10-20T12:58:17.082Z,4.82
2022-10-20T13:01:09.025Z,6.35
2022-10-20T13:03:54.726Z,5.95
2022-10-20T13:06:41.647Z,7.05
2022-10-20T13:09:28.232Z,4.07
2022-10-20T13:12:29.186Z,3.58
2022-10-20T13:15:19.987Z,7.78
2022-10-20T13:18:11.680Z,6.03
2022-10-20T13:21:22.758Z,7.68
2022-10-20T13:24:22.035Z,6.15
2022-10-20T13:27:09.800Z,19.98
2022-10-20T13:29:55.760Z,12.48
2022-10-20T13:33:34.400Z,9.52
2022-10-20T13:36:36.096Z,4.55
2022-10-20T13:39:43.359Z,4.68
2022-10-20T13:42:45.594Z,6.55
2022-10-20T13:45:31.663Z,5.05
2022-10-20T13:48:29.143Z,3.67
2022-10-20T13:51:25.684Z,2.28
2022-10-20T13:54:27.432Z,1.42
2022-10-20T13:57:24.608Z,12.75
2022-10-20T14:00:29.084Z,35.80
2022-10-20T14:03:17.817Z,32.58
2022-10-20T14:06:03.455Z,35.00
2022-10-20T14:08:48.830Z,23.88
2022-10-20T14:11:35.480Z,5.97
2022-10-20T14:14:27.693Z,4.40
2022-10-20T14:17:20.497Z,11.32
2022-10-20T14:20:22.089Z,2.58
2022-10-20T14:23:10.711Z,27.98
2022-10-20T14:25:57.521Z,33.85
2022-10-20T14:28:45.622Z,9.80
2022-10-20T14:31:31.769Z,11.48
2022-10-20T14:34:35.198Z,10.70
2022-10-20T14:37:40.602Z,13.43
2022-10-20T14:40:29.970Z,3.83
2022-10-20T14:43:19.661Z,5.85
2022-10-20T14:46:07.653Z,8.00
2022-10-20T14:48:53.289Z,45.35
2022-10-20T14:51:45.192Z,23.38
2022-10-20T14:57:16.989Z,14.70
2022-10-20T15:00:25.340Z,10.85
2022-10-20T15:03:12.131Z,16.80
2022-10-20T15:06:04.216Z,17.30
2022-10-20T15:08:54.925Z,11.35
2022-10-20T15:11:40.484Z,9.52
2022-10-20T15:14:26.256Z,5.57
2022-10-20T15:17:40.867Z,5.40
2022-10-20T15:20:49.079Z,6.85
2022-10-20T15:23:34.985Z,11.82
2022-10-20T15:26:20.290Z,12.20
2022-10-20T15:29:08.062Z,29.27
2022-10-20T15:31:55.505Z,162.60
2022-10-20T15:34:41.703Z,87.70
2022-10-20T15:37:28.890Z,64.72
2022-10-20T15:40:14.802Z,64.30
2022-10-20T15:43:00.520Z,45.03
2022-10-20T15:45:56.059Z,32.60
2022-10-20T15:48:43.214Z,103.32
2022-10-20T15:51:32.274Z,93.50
2022-10-20T15:54:22.612Z,77.65
2022-10-20T15:57:08.579Z,82.20
2022-10-20T15:59:54.223Z,87.82
2022-10-20T16:02:39.716Z,69.97
2022-10-20T16:05:26.804Z,63.70
2022-10-20T16:08:12.502Z,56.20
2022-10-20T16:10:58.051Z,43.92
2022-10-20T16:13:43.561Z,42.00
2022-10-20T16:16:28.942Z,37.38
2022-10-20T16:19:14.489Z,26.80
2022-10-20T16:21:59.998Z,25.70
2022-10-20T16:24:46.999Z,15.23
2022-10-20T16:27:33.923Z,17.10
2022-10-20T16:30:19.797Z,26.60
2022-10-20T16:33:05.679Z,27.23
2022-10-20T16:35:51.331Z,14.20
2022-10-20T16:38:40.091Z,18.42
2022-10-20T16:41:26.173Z,19.02
2022-10-20T16:44:12.357Z,21.45
2022-10-20T16:46:58.531Z,20.02
2022-10-20T16:49:44.365Z,18.65
2022-10-20T16:52:29.854Z,20.80
2022-10-20T16:55:16.421Z,20.95
2022-10-20T16:58:02.732Z,20.67
2022-10-20T17:01:02.403Z,14.43
2022-10-20T17:03:51.023Z,12.70
2022-10-20T17:06:37.131Z,9.48
2022-10-20T17:09:26.016Z,6.38
2022-10-20T17:12:12.335Z,11.50
2022-10-20T17:14:58.881Z,9.98
2022-10-20T17:17:59.465Z,5.60
2022-10-20T17:21:02.524Z,11.65
2022-10-20T17:24:20.761Z,8.85
2022-10-20T17:27:11.321Z,34.80
2022-10-20T17:29:58.173Z,40.65
2022-10-20T17:32:46.908Z,15.70
2022-10-20T17:35:40.962Z,15.95
2022-10-20T17:38:29.772Z,17.15
2022-10-20T17:41:16.032Z,19.65
2022-10-20T17:44:03.246Z,220.70
2022-10-20T17:46:50.479Z,83.28
2022-10-20T17:49:36.155Z,74.97
2022-10-20T17:52:22.842Z,39.65
2022-10-20T17:55:09.749Z,40.45
2022-10-20T17:57:56.696Z,87.10
2022-10-20T18:00:56.190Z,131.48
2022-10-20T18:03:43.499Z,153.90
2022-10-20T18:06:34.485Z,79.45
2022-10-20T18:09:21.105Z,78.85
2022-10-20T18:12:06.600Z,80.40
2022-10-20T18:14:52.190Z,33.05
2022-10-20T18:17:37.576Z,21.20
2022-10-20T18:20:23.035Z,25.85
2022-10-20T18:23:08.665Z,18.92
2022-10-20T18:25:54.674Z,18.15
2022-10-20T18:28:45.679Z,16.15
2022-10-20T18:31:35.334Z,15.02
2022-10-20T18:34:23.764Z,15.10
2022-10-20T18:37:09.552Z,12.18
2022-10-20T18:39:55.161Z,16.65
2022-10-20T18:42:40.537Z,14.30
2022-10-20T18:45:26.973Z,16.08
2022-10-20T18:48:14.674Z,13.63
2022-10-20T18:51:02.141Z,26.13
2022-10-20T18:53:52.176Z,49.70
2022-10-20T18:56:37.596Z,62.08
2022-10-20T18:59:23.282Z,47.22
2022-10-20T19:02:10.406Z,36.20
2022-10-20T19:04:58.647Z,43.50
2022-10-20T19:07:45.118Z,35.70
2022-10-20T19:10:30.512Z,36.53
2022-10-20T19:13:15.913Z,33.25
2022-10-20T19:16:05.869Z,30.90
2022-10-20T19:18:53.306Z,31.88
2022-10-20T19:21:38.746Z,34.22
2022-10-20T19:24:24.579Z,47.10
2022-10-20T19:27:27.155Z,35.78
2022-10-20T19:32:58.604Z,25.83
2022-10-20T19:35:43.868Z,35.30
2022-10-20T19:38:29.283Z,30.77
2022-10-20T19:41:15.895Z,29.77
2022-10-20T19:44:02.437Z,28.08
2022-10-20T19:46:51.428Z,30.88
2022-10-20T19:49:37.772Z,30.92
2022-10-20T19:52:23.441Z,23.27
2022-10-20T19:55:08.873Z,27.95
2022-10-20T19:57:54.354Z,23.95
2022-10-20T20:00:47.415Z,32.88
2022-10-20T20:03:33.417Z,29.55
2022-10-20T20:06:21.005Z,32.72
2022-10-20T20:09:08.462Z,45.15
2022-10-20T20:11:53.495Z,143.15
2022-10-20T20:14:39.360Z,60.78
2022-10-20T20:17:24.881Z,45.05
2022-10-20T20:20:10.355Z,47.15
2022-10-20T20:22:55.917Z,24.95
2022-10-20T20:25:43.760Z,43.85
2022-10-20T20:28:31.050Z,75.60
2022-10-20T20:31:16.600Z,95.53
2022-10-20T20:34:02.137Z,85.25
2022-10-20T20:36:48.476Z,78.05
2022-10-20T20:39:34.015Z,43.75
2022-10-20T20:42:19.352Z,35.78
2022-10-20T20:45:05.100Z,50.08
2022-10-20T20:47:50.435Z,42.22
2022-10-20T20:50:36.164Z,27.65
2022-10-20T20:53:22.673Z,33.38
2022-10-20T20:56:13.037Z,31.58
2022-10-20T20:58:58.331Z,36.92
2022-10-20T21:01:45.208Z,30.08
2022-10-20T21:04:30.872Z,24.48
2022-10-20T21:07:16.626Z,32.67
2022-10-20T21:10:01.987Z,42.70
2022-10-20T21:12:47.331Z,41.75
2022-10-20T21:15:33.062Z,41.10
2022-10-20T21:18:18.336Z,27.17
2022-10-20T21:21:29.995Z,24.73
2022-10-20T21:24:17.207Z,11.40
2022-10-20T21:27:02.909Z,8.38
2022-10-20T21:29:48.549Z,10.95
2022-10-20T21:32:34.587Z,7.80
2022-10-20T21:35:20.594Z,9.55
2022-10-20T21:38:06.344Z,19.75
2022-10-20T21:40:51.885Z,28.55
2022-10-20T21:43:40.698Z,31.13
2022-10-20T21:46:30.162Z,25.95
2022-10-20T21:49:19.172Z,19.60
2022-10-20T21:52:04.630Z,15.75
2022-10-20T21:54:52.588Z,15.82
2022-10-20T21:57:38.353Z,13.40
2022-10-20T22:00:24.284Z,16.45
2022-10-20T22:03:10.114Z,20.10
2022-10-20T22:05:55.619Z,22.83
2022-10-20T22:08:44.964Z,23.25
2022-10-20T22:11:46.488Z,18.83
2022-10-20T22:14:32.112Z,18.58
2022-10-20T22:17:18.528Z,14.98
2022-10-20T22:20:12.025Z,15.65
2022-10-20T22:23:07.104Z,15.43
2022-10-20T22:25:53.921Z,22.55
2022-10-20T22:28:41.267Z,21.15
2022-10-20T22:31:28.457Z,16.90
2022-10-20T22:34:14.488Z,27.60
2022-10-20T22:37:00.749Z,22.15
2022-10-20T22:39:46.414Z,23.80
2022-10-20T22:42:31.704Z,21.38
2022-10-20T22:45:17.790Z,23.88
2022-10-20T22:48:03.657Z,33.75
2022-10-20T22:50:50.139Z,31.50
2022-10-20T22:53:38.188Z,33.05
2022-10-20T22:56:23.958Z,30.10
2022-10-20T22:59:11.550Z,30.75
2022-10-20T23:02:03.376Z,32.50
2022-10-20T23:04:48.636Z,24.52
2022-10-20T23:07:38.040Z,24.40
2022-10-20T23:10:23.439Z,31.23
2022-10-20T23:13:08.799Z,27.90
2022-10-20T23:15:54.205Z,26.83
2022-10-20T23:18:39.963Z,36.45
2022-10-20T23:21:25.512Z,24.98
2022-10-20T23:24:10.960Z,32.47
2022-10-20T23:26:57.827Z,23.52
2022-10-20T23:29:43.077Z,44.55
2022-10-20T23:32:28.667Z,65.40
2022-10-20T23:35:14.214Z,83.13
2022-10-20T23:38:08.863Z,30.52
2022-10-20T23:41:01.992Z,33.08
2022-10-20T23:44:00.488Z,38.67
2022-10-20T23:46:52.723Z,27.10
2022-10-20T23:49:40.129Z,41.80
2022-10-20T23:52:29.926Z,57.70
2022-10-20T23:55:23.370Z,64.43
2022-10-20T23:58:12.741Z,54.65
